createdAt,value
2019-03-23T00:00:20.756Z,22.35
2019-03-23T00:01:25.639Z,24.52
2019-03-23T00:02:31.457Z,21.12
2019-03-23T00:03:35.786Z,22.02
2019-03-23T00:04:40.330Z,20.02
2019-03-23T00:05:44.617Z,21.23
2019-03-23T00:06:48.794Z,23.10
2019-03-23T00:07:53.155Z,22.58
2019-03-23T00:08:57.326Z,18.82
2019-03-23T00:10:01.550Z,21.07
2019-03-23T00:11:05.783Z,21.15
2019-03-23T00:12:10.205Z,18.65
2019-03-23T00:13:14.541Z,20.50
2019-03-23T00:14:18.718Z,20.55
2019-03-23T00:15:23.902Z,20.95
2019-03-23T00:16:28.144Z,18.62
2019-03-23T00:17:32.339Z,21.62
2019-03-23T00:18:36.582Z,19.17
2019-03-23T00:19:40.879Z,21.95
2019-03-23T00:20:45.285Z,23.27
2019-03-23T00:21:49.485Z,21.15
2019-03-23T00:22:53.658Z,20.48
2019-03-23T00:23:57.841Z,20.62
2019-03-23T00:25:02.087Z,20.40
2019-03-23T00:26:06.362Z,19.90
2019-03-23T00:27:10.614Z,21.68
2019-03-23T00:28:16.426Z,19.67
2019-03-23T00:29:23.096Z,22.55
2019-03-23T00:30:27.250Z,19.77
2019-03-23T00:31:31.702Z,21.73
2019-03-23T00:32:36.901Z,22.75
2019-03-23T00:33:41.122Z,22.15
2019-03-23T00:34:45.253Z,20.45
2019-03-23T00:35:49.751Z,19.45
2019-03-23T00:36:55.093Z,18.62
2019-03-23T00:37:59.638Z,22.30
2019-03-23T00:39:05.843Z,24.70
2019-03-23T00:40:10.256Z,21.50
2019-03-23T00:41:17.361Z,19.85
2019-03-23T00:42:21.607Z,22.02
2019-03-23T00:43:25.980Z,21.30
2019-03-23T00:44:30.155Z,20.45
2019-03-23T00:45:34.339Z,20.05
2019-03-23T00:46:38.721Z,22.07
2019-03-23T00:47:42.894Z,22.50
2019-03-23T00:48:48.909Z,21.45
2019-03-23T00:49:53.178Z,18.60
2019-03-23T00:50:57.422Z,20.52
2019-03-23T00:52:01.603Z,22.50
2019-03-23T00:53:05.813Z,19.37
2019-03-23T00:54:10.166Z,19.27
2019-03-23T00:55:14.435Z,19.30
2019-03-23T00:56:18.610Z,18.60
2019-03-23T00:57:24.418Z,18.65
2019-03-23T00:58:28.704Z,18.45
2019-03-23T00:59:32.845Z,20.02
2019-03-23T01:00:37.090Z,20.97
2019-03-23T01:01:41.259Z,19.50
2019-03-23T01:02:45.524Z,19.60
2019-03-23T01:03:49.879Z,24.55
2019-03-23T01:04:54.060Z,22.82
2019-03-23T01:05:58.247Z,22.90
2019-03-23T01:07:02.495Z,23.77
2019-03-23T01:08:06.675Z,19.05
2019-03-23T01:09:10.990Z,22.05
2019-03-23T01:10:15.168Z,24.20
2019-03-23T01:11:19.347Z,24.95
2019-03-23T01:12:23.687Z,18.60
2019-03-23T01:13:27.873Z,22.42
2019-03-23T01:14:32.543Z,25.23
2019-03-23T01:15:37.084Z,22.80
2019-03-23T01:16:41.195Z,22.62
2019-03-23T01:17:46.997Z,25.90
2019-03-23T01:18:51.173Z,25.52
2019-03-23T01:19:55.388Z,21.73
2019-03-23T01:20:59.600Z,21.60
2019-03-23T01:22:03.787Z,22.42
2019-03-23T01:23:08.910Z,25.60
2019-03-23T01:24:13.090Z,24.85
2019-03-23T01:25:17.406Z,24.57
2019-03-23T01:26:21.592Z,25.70
2019-03-23T01:27:25.770Z,22.48
2019-03-23T01:28:30.334Z,22.90
2019-03-23T01:29:34.557Z,25.55
2019-03-23T01:30:38.767Z,22.87
2019-03-23T01:31:42.965Z,22.22
2019-03-23T01:32:47.144Z,22.85
2019-03-23T01:33:53.060Z,27.55
2019-03-23T01:34:57.266Z,23.02
2019-03-23T01:36:01.562Z,24.23
2019-03-23T01:37:05.734Z,23.20
2019-03-23T01:38:09.905Z,23.02
2019-03-23T01:39:14.078Z,21.00
2019-03-23T01:40:18.255Z,23.07
2019-03-23T01:41:24.098Z,26.37
2019-03-23T01:42:29.245Z,19.98
2019-03-23T01:43:33.425Z,20.27
2019-03-23T01:44:39.317Z,24.72
2019-03-23T01:45:43.532Z,22.45
2019-03-23T01:46:47.918Z,21.77
2019-03-23T01:47:52.184Z,20.17
2019-03-23T01:48:56.371Z,18.17
2019-03-23T01:50:00.602Z,20.92
2019-03-23T01:51:04.858Z,18.37
2019-03-23T01:52:09.454Z,22.65
2019-03-23T01:53:16.625Z,19.75
2019-03-23T01:54:21.714Z,21.97
2019-03-23T01:55:27.001Z,17.42
2019-03-23T01:56:31.247Z,21.25
2019-03-23T01:57:37.249Z,20.70
2019-03-23T01:58:41.698Z,21.00
2019-03-23T01:59:45.883Z,18.23
2019-03-23T02:00:50.186Z,18.98
2019-03-23T02:01:54.365Z,21.35
2019-03-23T02:02:58.870Z,20.75
2019-03-23T02:04:03.043Z,23.15
2019-03-23T02:05:08.848Z,20.43
2019-03-23T02:06:13.042Z,19.15
2019-03-23T02:07:17.205Z,19.85
2019-03-23T02:08:23.056Z,18.75
2019-03-23T02:09:27.229Z,20.88
2019-03-23T02:10:33.019Z,21.48
2019-03-23T02:11:37.345Z,23.55
2019-03-23T02:12:41.596Z,22.85
2019-03-23T02:13:47.175Z,20.68
2019-03-23T02:14:51.649Z,19.62
2019-03-23T02:15:56.150Z,21.02
2019-03-23T02:17:00.329Z,19.70
2019-03-23T02:18:06.402Z,24.27
2019-03-23T02:19:10.648Z,20.43
2019-03-23T02:20:14.901Z,18.92
2019-03-23T02:21:19.076Z,18.37
2019-03-23T02:22:23.659Z,22.30
2019-03-23T02:23:29.347Z,18.48
2019-03-23T02:24:33.939Z,22.00
2019-03-23T02:25:38.110Z,18.52
2019-03-23T02:26:42.285Z,22.62
2019-03-23T02:27:46.458Z,19.95
2019-03-23T02:28:50.702Z,20.08
2019-03-23T02:29:56.530Z,18.48
2019-03-23T02:31:02.353Z,17.80
2019-03-23T02:32:06.697Z,16.48
2019-03-23T02:33:10.900Z,21.25
2019-03-23T02:34:16.261Z,20.68
2019-03-23T02:35:20.717Z,22.60
2019-03-23T02:36:24.910Z,19.12
2019-03-23T02:37:29.088Z,20.88
2019-03-23T02:38:33.420Z,18.37
2019-03-23T02:39:37.604Z,17.57
2019-03-23T02:40:42.208Z,19.27
2019-03-23T02:41:46.392Z,20.45
2019-03-23T02:42:50.696Z,20.43
2019-03-23T02:43:54.870Z,20.02
2019-03-23T02:45:00.678Z,21.20
2019-03-23T02:46:04.855Z,18.27
2019-03-23T02:47:09.073Z,21.62
2019-03-23T02:48:13.241Z,22.17
2019-03-23T02:49:17.485Z,21.35
2019-03-23T02:50:22.634Z,21.97
2019-03-23T02:51:26.810Z,19.77
2019-03-23T02:52:30.991Z,21.30
2019-03-23T02:53:36.431Z,22.75
2019-03-23T02:54:40.607Z,20.88
2019-03-23T02:55:44.955Z,18.77
2019-03-23T02:56:49.125Z,21.73
2019-03-23T02:57:54.690Z,23.80
2019-03-23T02:58:58.909Z,20.52
2019-03-23T03:00:04.223Z,21.55
2019-03-23T03:01:10.022Z,19.98
2019-03-23T03:02:17.313Z,21.00
2019-03-23T03:03:21.850Z,19.00
2019-03-23T03:04:29.476Z,21.87
2019-03-23T03:05:35.870Z,20.62
2019-03-23T03:06:40.042Z,20.00
2019-03-23T03:07:44.361Z,19.70
2019-03-23T03:08:49.637Z,20.23
2019-03-23T03:09:53.976Z,21.73
2019-03-23T03:10:58.140Z,19.90
2019-03-23T03:12:02.311Z,19.30
2019-03-23T03:13:06.826Z,21.30
2019-03-23T03:14:11.071Z,22.25
2019-03-23T03:15:15.278Z,22.45
2019-03-23T03:16:19.524Z,21.30
2019-03-23T03:17:23.701Z,22.30
2019-03-23T03:18:27.877Z,21.62
2019-03-23T03:19:32.136Z,20.23
2019-03-23T03:20:38.061Z,22.22
2019-03-23T03:21:42.262Z,20.37
2019-03-23T03:22:46.437Z,18.42
2019-03-23T03:23:50.719Z,25.72
2019-03-23T03:24:55.188Z,24.12
2019-03-23T03:26:02.413Z,20.23
2019-03-23T03:27:06.923Z,23.35
2019-03-23T03:28:11.099Z,19.90
2019-03-23T03:29:15.279Z,18.95
2019-03-23T03:30:19.462Z,23.47
2019-03-23T03:31:25.406Z,22.80
2019-03-23T03:32:29.578Z,21.82
2019-03-23T03:33:34.818Z,20.17
2019-03-23T03:34:38.996Z,22.40
2019-03-23T03:35:43.166Z,21.82
2019-03-23T03:36:47.388Z,22.62
2019-03-23T03:37:56.960Z,23.80
2019-03-23T03:38:57.565Z,21.00
2019-03-23T03:40:01.773Z,21.75
2019-03-23T03:41:08.697Z,20.85
2019-03-23T03:42:12.956Z,21.87
2019-03-23T03:43:17.204Z,21.02
2019-03-23T03:44:23.065Z,22.35
2019-03-23T03:45:28.009Z,19.60
2019-03-23T03:46:32.184Z,21.93
2019-03-23T03:47:41.078Z,22.93
2019-03-23T03:48:44.077Z,22.73
2019-03-23T03:49:48.316Z,19.65
2019-03-23T03:50:52.443Z,22.35
2019-03-23T03:51:56.619Z,20.17
2019-03-23T03:53:00.817Z,22.20
2019-03-23T03:54:05.124Z,23.85
2019-03-23T03:55:09.331Z,21.35
2019-03-23T03:56:13.574Z,21.25
2019-03-23T03:57:19.164Z,23.83
2019-03-23T03:58:23.404Z,21.23
2019-03-23T03:59:28.161Z,22.73
2019-03-23T04:00:32.372Z,21.60
2019-03-23T04:01:36.617Z,24.12
2019-03-23T04:02:40.825Z,20.30
2019-03-23T04:03:46.087Z,22.58
2019-03-23T04:04:52.199Z,21.62
2019-03-23T04:05:56.411Z,21.65
2019-03-23T04:07:00.582Z,23.00
2019-03-23T04:08:11.300Z,20.72
2019-03-23T04:09:10.641Z,29.12
2019-03-23T04:10:14.876Z,22.27
2019-03-23T04:11:19.108Z,23.52
2019-03-23T04:12:23.335Z,21.87
2019-03-23T04:13:27.514Z,22.20
2019-03-23T04:14:31.732Z,25.27
2019-03-23T04:15:35.916Z,22.70
2019-03-23T04:16:40.124Z,24.00
2019-03-23T04:17:44.399Z,23.87
2019-03-23T04:18:48.602Z,21.33
2019-03-23T04:19:52.779Z,26.42
2019-03-23T04:20:56.956Z,25.50
2019-03-23T04:22:01.462Z,23.67
2019-03-23T04:23:05.649Z,24.87
2019-03-23T04:24:09.831Z,31.42
2019-03-23T04:25:14.003Z,36.55
2019-03-23T04:26:18.184Z,34.20
2019-03-23T04:27:22.728Z,27.05
2019-03-23T04:28:26.872Z,25.57
2019-03-23T04:29:31.051Z,25.05
2019-03-23T04:30:35.399Z,29.60
2019-03-23T04:31:39.577Z,27.40
2019-03-23T04:32:43.847Z,27.93
2019-03-23T04:33:48.043Z,26.35
2019-03-23T04:34:52.250Z,22.02
2019-03-23T04:35:56.445Z,27.40
2019-03-23T04:37:01.687Z,23.95
2019-03-23T04:38:06.011Z,20.80
2019-03-23T04:39:10.503Z,21.12
2019-03-23T04:40:14.762Z,20.90
2019-03-23T04:41:18.956Z,19.10
2019-03-23T04:42:23.142Z,24.05
2019-03-23T04:43:27.430Z,25.68
2019-03-23T04:44:31.608Z,22.13
2019-03-23T04:45:35.784Z,23.35
2019-03-23T04:46:39.963Z,19.25
2019-03-23T04:47:44.146Z,21.55
2019-03-23T04:48:48.749Z,24.43
2019-03-23T04:49:52.993Z,21.68
2019-03-23T04:50:57.172Z,22.27
2019-03-23T04:52:01.350Z,23.20
2019-03-23T04:53:05.543Z,21.97
2019-03-23T04:54:09.741Z,23.32
2019-03-23T04:55:14.085Z,23.90
2019-03-23T04:56:18.305Z,19.90
2019-03-23T04:57:22.549Z,22.42
2019-03-23T04:58:26.775Z,19.70
2019-03-23T04:59:31.027Z,20.62
2019-03-23T05:00:35.434Z,21.15
2019-03-23T05:01:39.664Z,23.83
2019-03-23T05:02:43.860Z,19.23
2019-03-23T05:03:48.013Z,23.52
2019-03-23T05:04:52.245Z,22.45
2019-03-23T05:05:56.397Z,22.40
2019-03-23T05:07:00.576Z,22.85
2019-03-23T05:08:04.817Z,23.92
2019-03-23T05:09:09.466Z,21.33
2019-03-23T05:10:13.731Z,21.27
2019-03-23T05:11:17.955Z,22.13
2019-03-23T05:12:22.200Z,22.58
2019-03-23T05:13:26.482Z,21.70
2019-03-23T05:14:30.687Z,22.45
2019-03-23T05:15:37.220Z,20.60
2019-03-23T05:16:41.610Z,23.05
2019-03-23T05:17:45.785Z,22.22
2019-03-23T05:18:51.577Z,23.83
2019-03-23T05:19:57.316Z,21.00
2019-03-23T05:21:01.499Z,20.92
2019-03-23T05:22:05.819Z,23.75
2019-03-23T05:23:09.994Z,21.05
2019-03-23T05:24:14.240Z,24.67
2019-03-23T05:25:21.674Z,21.57
2019-03-23T05:26:25.944Z,24.35
2019-03-23T05:27:30.097Z,25.02
2019-03-23T05:28:34.385Z,23.00
2019-03-23T05:29:38.551Z,23.87
2019-03-23T05:30:42.814Z,23.75
2019-03-23T05:31:47.203Z,20.60
2019-03-23T05:32:53.013Z,23.65
2019-03-23T05:33:57.567Z,22.87
2019-03-23T05:35:01.829Z,22.02
2019-03-23T05:36:06.083Z,22.48
2019-03-23T05:37:11.065Z,24.43
2019-03-23T05:38:15.239Z,21.93
2019-03-23T05:39:19.566Z,22.50
2019-03-23T05:40:23.800Z,24.12
2019-03-23T05:41:30.815Z,21.33
2019-03-23T05:42:34.669Z,22.15
2019-03-23T05:43:38.854Z,24.12
2019-03-23T05:44:43.030Z,25.17
2019-03-23T05:45:47.547Z,23.55
2019-03-23T05:46:54.176Z,25.50
2019-03-23T05:47:57.652Z,25.68
2019-03-23T05:49:01.820Z,26.23
2019-03-23T05:50:07.339Z,25.95
2019-03-23T05:51:11.620Z,22.02
2019-03-23T05:52:15.822Z,20.55
2019-03-23T05:53:21.066Z,25.70
2019-03-23T05:54:25.276Z,23.60
2019-03-23T05:55:30.389Z,23.12
2019-03-23T05:56:36.198Z,24.12
2019-03-23T05:57:40.398Z,22.62
2019-03-23T05:58:44.574Z,20.30
2019-03-23T05:59:48.860Z,21.17
2019-03-23T06:00:52.988Z,20.88
2019-03-23T06:01:57.231Z,20.32
2019-03-23T06:03:01.634Z,21.97
2019-03-23T06:04:07.423Z,27.67
2019-03-23T06:05:12.542Z,22.80
2019-03-23T06:06:16.716Z,22.87
2019-03-23T06:07:22.589Z,22.87
2019-03-23T06:08:26.859Z,26.20
2019-03-23T06:09:31.039Z,23.73
2019-03-23T06:10:35.259Z,26.87
2019-03-23T06:11:39.502Z,27.20
2019-03-23T06:12:43.673Z,25.20
2019-03-23T06:13:48.006Z,26.77
2019-03-23T06:14:52.321Z,29.42
2019-03-23T06:15:56.705Z,23.85
2019-03-23T06:17:00.941Z,25.77
2019-03-23T06:18:06.751Z,25.08
2019-03-23T06:19:11.049Z,27.02
2019-03-23T06:20:16.017Z,25.50
2019-03-23T06:21:20.331Z,24.02
2019-03-23T06:22:24.609Z,28.32
2019-03-23T06:23:28.778Z,30.40
2019-03-23T06:24:33.017Z,23.90
2019-03-23T06:25:37.372Z,28.60
2019-03-23T06:26:41.734Z,27.37
2019-03-23T06:27:45.954Z,27.48
2019-03-23T06:28:51.827Z,27.30
2019-03-23T06:29:56.061Z,26.60
2019-03-23T06:31:00.274Z,26.48
2019-03-23T06:32:04.571Z,29.82
2019-03-23T06:33:08.750Z,26.68
2019-03-23T06:34:12.998Z,25.37
2019-03-23T06:35:17.300Z,28.23
2019-03-23T06:36:21.661Z,26.87
2019-03-23T06:37:26.192Z,29.23
2019-03-23T06:38:30.366Z,23.90
2019-03-23T06:39:34.681Z,30.80
2019-03-23T06:40:38.941Z,26.25
2019-03-23T06:41:43.142Z,28.47
2019-03-23T06:42:47.432Z,24.60
2019-03-23T06:43:51.619Z,24.35
2019-03-23T06:44:56.000Z,21.87
2019-03-23T06:46:00.174Z,25.00
2019-03-23T06:47:04.562Z,31.73
2019-03-23T06:48:08.721Z,23.90
2019-03-23T06:49:12.891Z,23.95
2019-03-23T06:50:17.069Z,26.45
2019-03-23T06:51:21.252Z,23.18
2019-03-23T06:52:25.470Z,25.00
2019-03-23T06:53:29.642Z,30.32
2019-03-23T06:54:33.815Z,26.50
2019-03-23T06:55:38.003Z,26.25
2019-03-23T06:56:42.197Z,25.57
2019-03-23T06:57:46.370Z,25.85
2019-03-23T06:58:50.628Z,26.97
2019-03-23T06:59:54.788Z,28.30
2019-03-23T07:00:59.017Z,26.33
2019-03-23T07:02:04.005Z,27.25
2019-03-23T07:03:08.211Z,23.73
2019-03-23T07:04:12.383Z,24.35
2019-03-23T07:05:16.562Z,27.22
2019-03-23T07:06:20.809Z,23.92
2019-03-23T07:07:24.988Z,27.75
2019-03-23T07:08:32.083Z,27.17
2019-03-23T07:09:35.420Z,28.10
2019-03-23T07:10:40.565Z,27.05
2019-03-23T07:11:44.738Z,29.23
2019-03-23T07:12:48.995Z,27.15
2019-03-23T07:13:53.229Z,26.97
2019-03-23T07:14:57.404Z,27.80
2019-03-23T07:16:01.607Z,27.62
2019-03-23T07:17:05.948Z,34.30
2019-03-23T07:18:10.126Z,25.43
2019-03-23T07:19:14.411Z,27.40
2019-03-23T07:20:18.919Z,23.35
2019-03-23T07:21:23.098Z,26.42
2019-03-23T07:22:27.343Z,29.65
2019-03-23T07:23:31.523Z,25.43
2019-03-23T07:24:35.867Z,27.25
2019-03-23T07:25:40.045Z,27.55
2019-03-23T07:26:44.297Z,28.98
2019-03-23T07:27:48.506Z,26.40
2019-03-23T07:28:52.693Z,28.45
2019-03-23T07:29:56.968Z,27.00
2019-03-23T07:31:01.145Z,28.85
2019-03-23T07:32:06.252Z,27.35
2019-03-23T07:33:10.570Z,27.45
2019-03-23T07:34:14.753Z,27.45
2019-03-23T07:35:18.996Z,28.92
2019-03-23T07:36:23.120Z,29.92
2019-03-23T07:37:27.374Z,23.75
2019-03-23T07:38:31.594Z,30.40
2019-03-23T07:39:37.408Z,30.10
2019-03-23T07:40:41.710Z,32.80
2019-03-23T07:41:47.502Z,28.57
2019-03-23T07:42:51.754Z,33.65
2019-03-23T07:43:55.991Z,31.27
2019-03-23T07:45:00.339Z,31.70
2019-03-23T07:46:06.224Z,33.53
2019-03-23T07:47:10.453Z,32.20
2019-03-23T07:48:14.591Z,30.20
2019-03-23T07:49:18.791Z,30.00
2019-03-23T07:50:23.039Z,30.05
2019-03-23T07:51:27.291Z,31.02
2019-03-23T07:52:31.536Z,31.00
2019-03-23T07:53:38.316Z,31.65
2019-03-23T07:54:42.516Z,31.60
2019-03-23T07:55:46.787Z,33.75
2019-03-23T07:56:51.034Z,32.85
2019-03-23T07:57:55.240Z,31.90
2019-03-23T07:58:59.595Z,35.13
2019-03-23T08:00:07.214Z,33.42
2019-03-23T08:01:11.416Z,36.95
2019-03-23T08:02:15.597Z,34.70
2019-03-23T08:03:19.834Z,33.48
2019-03-23T08:04:23.993Z,33.90
2019-03-23T08:05:28.245Z,33.60
2019-03-23T08:06:32.429Z,34.10
2019-03-23T08:07:36.723Z,36.23
2019-03-23T08:08:41.972Z,37.65
2019-03-23T08:09:46.217Z,37.17
2019-03-23T08:10:51.407Z,35.50
2019-03-23T08:11:55.595Z,34.78
2019-03-23T08:13:00.199Z,35.50
2019-03-23T08:14:04.369Z,34.65
2019-03-23T08:15:13.742Z,37.93
2019-03-23T08:16:17.895Z,34.53
2019-03-23T08:17:22.078Z,34.08
2019-03-23T08:18:26.292Z,39.65
2019-03-23T08:19:30.480Z,35.38
2019-03-23T08:20:34.841Z,37.60
2019-03-23T08:21:39.011Z,34.70
2019-03-23T08:22:44.842Z,37.25
2019-03-23T08:23:49.085Z,37.80
2019-03-23T08:24:53.224Z,37.75
2019-03-23T08:25:57.407Z,37.90
2019-03-23T08:27:01.656Z,33.90
2019-03-23T08:28:06.431Z,39.53
2019-03-23T08:29:10.642Z,44.20
2019-03-23T08:30:14.826Z,41.70
2019-03-23T08:31:19.004Z,39.00
2019-03-23T08:32:23.252Z,42.80
2019-03-23T08:33:27.513Z,46.75
2019-03-23T08:34:31.717Z,42.08
2019-03-23T08:35:35.962Z,40.28
2019-03-23T08:36:40.139Z,46.73
2019-03-23T08:37:44.390Z,45.20
2019-03-23T08:38:48.579Z,47.55
2019-03-23T08:39:52.807Z,44.30
2019-03-23T08:40:57.383Z,47.23
2019-03-23T08:42:01.568Z,50.12
2019-03-23T08:43:05.914Z,52.95
2019-03-23T08:44:10.099Z,60.23
2019-03-23T08:45:14.305Z,59.63
2019-03-23T08:46:18.481Z,51.23
2019-03-23T08:47:22.660Z,51.92
2019-03-23T08:48:27.043Z,54.45
2019-03-23T08:49:31.293Z,54.93
2019-03-23T08:50:35.537Z,53.02
2019-03-23T08:51:39.724Z,53.17
2019-03-23T08:52:43.976Z,55.75
2019-03-23T08:53:48.727Z,55.52
2019-03-23T08:54:52.912Z,58.45
2019-03-23T08:55:57.158Z,51.85
2019-03-23T08:57:01.412Z,55.10
2019-03-23T08:58:05.668Z,49.50
2019-03-23T08:59:09.882Z,49.13
2019-03-23T09:00:14.127Z,51.10
2019-03-23T09:01:18.374Z,52.25
2019-03-23T09:02:22.628Z,58.42
2019-03-23T09:03:28.439Z,57.93
2019-03-23T09:04:32.880Z,65.08
2019-03-23T09:05:37.129Z,63.05
2019-03-23T09:06:41.522Z,61.77
2019-03-23T09:07:47.190Z,61.30
2019-03-23T09:08:51.412Z,65.40
2019-03-23T09:09:59.411Z,63.13
2019-03-23T09:11:01.564Z,56.98
2019-03-23T09:12:05.744Z,61.05
2019-03-23T09:13:10.991Z,63.23
2019-03-23T09:14:15.184Z,65.62
2019-03-23T09:15:20.453Z,63.40
2019-03-23T09:16:24.564Z,68.70
2019-03-23T09:17:29.154Z,65.03
2019-03-23T09:18:35.144Z,64.58
2019-03-23T09:19:39.334Z,64.97
2019-03-23T09:20:43.513Z,66.45
2019-03-23T09:21:49.534Z,62.27
2019-03-23T09:22:53.808Z,64.95
2019-03-23T09:23:58.128Z,62.15
2019-03-23T09:25:02.480Z,62.95
2019-03-23T09:26:06.727Z,64.80
2019-03-23T09:27:12.639Z,63.95
2019-03-23T09:28:21.976Z,60.40
2019-03-23T10:02:31.126Z,53.23
2019-03-23T10:03:36.142Z,52.90
2019-03-23T10:04:40.325Z,56.95
2019-03-23T10:05:44.604Z,48.65
2019-03-23T10:06:48.786Z,52.53
2019-03-23T10:07:52.974Z,53.23
2019-03-23T10:08:58.124Z,53.30
2019-03-23T10:10:02.430Z,53.98
2019-03-23T10:11:07.676Z,48.13
2019-03-23T10:12:11.855Z,54.38
2019-03-23T10:13:16.031Z,52.60
2019-03-23T10:14:20.294Z,47.37
2019-03-23T10:15:24.475Z,51.40
2019-03-23T10:16:28.771Z,50.38
2019-03-23T10:17:33.023Z,47.73
2019-03-23T10:18:37.275Z,53.38
2019-03-23T10:19:41.450Z,49.83
2019-03-23T10:20:45.629Z,52.35
2019-03-23T10:21:49.935Z,50.55
2019-03-23T10:22:54.182Z,52.53
2019-03-23T10:23:58.368Z,53.73
2019-03-23T10:25:02.547Z,52.27
2019-03-23T10:26:07.803Z,52.67
2019-03-23T10:27:12.102Z,53.67
2019-03-23T10:28:16.313Z,54.18
2019-03-23T10:29:21.431Z,54.73
2019-03-23T10:30:25.659Z,52.00
2019-03-23T10:31:29.842Z,55.73
2019-03-23T10:32:34.109Z,53.38
2019-03-23T10:33:38.294Z,54.00
2019-03-23T10:34:42.482Z,47.50
2019-03-23T10:35:46.703Z,52.43
2019-03-23T10:36:50.958Z,52.43
2019-03-23T10:37:55.187Z,55.70
2019-03-23T10:38:59.464Z,52.87
2019-03-23T10:40:07.484Z,56.98
2019-03-23T10:41:11.811Z,57.20
2019-03-23T10:42:16.332Z,51.30
2019-03-23T10:43:20.620Z,52.53
2019-03-23T10:44:24.862Z,52.88
2019-03-23T10:45:29.048Z,54.83
2019-03-23T10:46:33.325Z,49.20
2019-03-23T10:47:37.719Z,60.43
2019-03-23T10:48:41.873Z,51.18
2019-03-23T10:49:46.047Z,48.75
2019-03-23T10:50:50.320Z,53.17
2019-03-23T10:51:54.534Z,55.60
2019-03-23T10:52:58.732Z,50.55
2019-03-23T10:54:04.129Z,53.00
2019-03-23T10:55:09.337Z,54.70
2019-03-23T10:56:13.613Z,54.03
2019-03-23T10:57:17.882Z,54.73
2019-03-23T10:58:22.122Z,59.20
2019-03-23T10:59:27.975Z,54.55
2019-03-23T11:00:32.285Z,54.53
2019-03-23T11:01:36.461Z,54.38
2019-03-23T11:02:40.639Z,52.33
2019-03-23T11:03:44.821Z,51.33
2019-03-23T11:04:49.122Z,51.05
2019-03-23T11:05:53.306Z,53.90
2019-03-23T11:06:57.557Z,54.35
2019-03-23T11:08:01.754Z,51.55
2019-03-23T11:09:06.698Z,50.05
2019-03-23T11:10:13.040Z,47.48
2019-03-23T11:11:18.262Z,50.33
2019-03-23T11:12:22.441Z,50.17
2019-03-23T11:13:26.624Z,50.98
2019-03-23T11:14:30.799Z,51.42
2019-03-23T11:15:35.006Z,48.58
2019-03-23T11:16:39.181Z,51.55
2019-03-23T11:17:43.430Z,50.00
2019-03-23T11:18:47.617Z,54.58
2019-03-23T11:19:51.801Z,54.53
2019-03-23T11:20:56.000Z,50.45
2019-03-23T11:22:00.183Z,51.65
2019-03-23T11:23:04.882Z,50.85
2019-03-23T11:24:09.062Z,54.67
2019-03-23T11:25:13.315Z,54.53
2019-03-23T11:26:17.525Z,62.73
2019-03-23T11:27:21.773Z,54.27
2019-03-23T11:28:26.023Z,57.30
2019-03-23T11:29:30.205Z,54.60
2019-03-23T11:30:34.491Z,53.60
2019-03-23T11:31:38.708Z,57.93
2019-03-23T11:32:42.889Z,55.45
2019-03-23T11:33:47.163Z,53.35
2019-03-23T11:34:51.511Z,55.70
2019-03-23T11:35:58.016Z,59.70
2019-03-23T11:37:01.689Z,55.60
2019-03-23T11:38:05.948Z,59.00
2019-03-23T11:39:10.197Z,58.50
2019-03-23T11:40:14.379Z,60.80
2019-03-23T11:41:18.559Z,58.47
2019-03-23T11:42:22.766Z,57.13
2019-03-23T11:43:26.945Z,57.88
2019-03-23T11:44:31.135Z,57.45
2019-03-23T11:45:35.325Z,55.73
2019-03-23T11:46:39.508Z,53.98
2019-03-23T11:47:43.720Z,55.45
2019-03-23T11:48:47.902Z,61.70
2019-03-23T11:49:52.088Z,57.83
2019-03-23T11:50:56.273Z,58.70
2019-03-23T11:52:00.464Z,58.60
2019-03-23T11:53:04.750Z,59.45
2019-03-23T11:54:08.930Z,60.55
2019-03-23T11:55:14.191Z,60.47
2019-03-23T11:56:18.362Z,63.30
2019-03-23T11:57:22.549Z,58.77
2019-03-23T11:58:26.755Z,58.42
2019-03-23T11:59:30.950Z,57.40
2019-03-23T12:00:35.192Z,56.98
2019-03-23T12:01:39.469Z,52.85
2019-03-23T12:02:44.708Z,60.67
2019-03-23T12:03:48.965Z,64.62
2019-03-23T12:04:53.262Z,57.53
2019-03-23T12:05:57.416Z,56.98
2019-03-23T12:07:01.681Z,54.45
2019-03-23T12:08:05.868Z,58.40
2019-03-23T12:09:10.141Z,53.83
2019-03-23T12:10:14.294Z,60.23
2019-03-23T12:11:18.478Z,60.67
2019-03-23T12:12:22.658Z,60.17
2019-03-23T12:13:26.910Z,61.77
2019-03-23T12:14:31.148Z,55.15
2019-03-23T12:15:35.314Z,54.33
2019-03-23T12:16:39.502Z,58.02
2019-03-23T12:17:43.755Z,54.23
2019-03-23T12:18:47.937Z,57.17
2019-03-23T12:19:52.143Z,52.17
2019-03-23T12:20:56.445Z,53.98
2019-03-23T12:22:00.692Z,55.10
2019-03-23T12:23:04.950Z,61.33
2019-03-23T12:24:09.122Z,57.45
2019-03-23T12:25:13.301Z,56.92
2019-03-23T12:26:17.506Z,57.77
2019-03-23T12:27:21.690Z,55.95
2019-03-23T12:28:25.883Z,34.47
2019-03-23T12:29:30.063Z,49.75
2019-03-23T12:30:34.294Z,58.45
2019-03-23T12:31:38.475Z,58.85
2019-03-23T12:32:42.661Z,59.27
2019-03-23T12:33:47.805Z,59.45
2019-03-23T12:34:52.053Z,57.10
2019-03-23T12:35:56.274Z,55.03
2019-03-23T12:37:00.459Z,61.60
2019-03-23T12:38:04.705Z,58.52
2019-03-23T12:39:08.886Z,57.27
2019-03-23T12:40:13.332Z,55.65
2019-03-23T12:41:22.947Z,58.03
2019-03-23T12:42:23.487Z,52.88
2019-03-23T12:43:27.671Z,52.15
2019-03-23T12:44:31.879Z,54.33
2019-03-23T12:45:36.058Z,55.55
2019-03-23T12:46:47.906Z,57.35
2019-03-23T12:47:46.143Z,56.00
2019-03-23T12:48:50.322Z,55.28
2019-03-23T12:49:54.510Z,57.70
2019-03-23T12:50:58.705Z,55.75
2019-03-23T12:52:03.257Z,59.03
2019-03-23T12:53:07.414Z,56.23
2019-03-23T12:54:11.597Z,58.43
2019-03-23T12:55:15.770Z,58.23
2019-03-23T12:56:19.951Z,59.07
2019-03-23T12:57:24.187Z,52.95
2019-03-23T12:58:28.370Z,57.95
2019-03-23T12:59:32.549Z,63.00
2019-03-23T13:00:36.867Z,53.70
2019-03-23T13:01:41.047Z,55.03
2019-03-23T13:02:45.342Z,56.23
2019-03-23T13:03:49.551Z,57.20
2019-03-23T13:04:53.730Z,56.50
2019-03-23T13:05:57.982Z,58.23
2019-03-23T13:07:02.256Z,56.15
2019-03-23T13:08:06.554Z,55.40
2019-03-23T13:09:10.752Z,56.10
2019-03-23T13:10:15.102Z,57.70
2019-03-23T13:11:23.260Z,55.70
2019-03-23T13:12:25.246Z,60.12
2019-03-23T13:13:29.471Z,55.25
2019-03-23T13:14:33.721Z,60.45
2019-03-23T13:15:37.903Z,66.23
2019-03-23T13:16:42.082Z,62.23
2019-03-23T13:17:46.278Z,66.65
2019-03-23T13:18:50.826Z,61.95
2019-03-23T13:19:55.052Z,69.55
2019-03-23T13:20:59.250Z,69.77
2019-03-23T13:22:04.432Z,62.74
2019-03-23T13:23:08.615Z,63.15
2019-03-23T13:24:12.817Z,66.90
2019-03-23T13:25:17.122Z,68.60
2019-03-23T13:26:21.324Z,65.65
2019-03-23T13:27:25.503Z,71.45
2019-03-23T13:28:29.684Z,65.03
2019-03-23T13:29:33.866Z,68.62
2019-03-23T13:30:38.131Z,69.32
2019-03-23T13:31:42.675Z,68.60
2019-03-23T13:32:46.882Z,64.77
2019-03-23T13:33:51.062Z,64.22
2019-03-23T13:34:55.332Z,75.78
2019-03-23T13:35:59.543Z,65.05
2019-03-23T13:37:04.296Z,58.02
2019-03-23T13:38:08.483Z,67.42
2019-03-23T13:39:12.730Z,60.97
2019-03-23T13:40:16.969Z,61.47
2019-03-23T13:41:22.640Z,62.57
2019-03-23T13:42:26.785Z,57.38
2019-03-23T13:43:31.006Z,62.70
2019-03-23T13:44:35.191Z,66.10
2019-03-23T13:45:42.719Z,67.80
2019-03-23T13:46:45.252Z,73.02
2019-03-23T13:47:49.498Z,69.40
2019-03-23T13:48:53.681Z,71.25
2019-03-23T13:49:57.918Z,63.78
2019-03-23T13:51:02.184Z,63.92
2019-03-23T13:52:06.325Z,63.50
2019-03-23T13:53:10.580Z,67.93
2019-03-23T13:54:14.765Z,67.03
2019-03-23T13:55:26.622Z,62.77
2019-03-23T13:56:30.801Z,62.73
2019-03-23T13:57:34.986Z,56.77
2019-03-23T13:58:39.423Z,60.73
2019-03-23T13:59:43.607Z,67.42
2019-03-23T14:00:47.858Z,65.12
2019-03-23T14:01:51.999Z,67.92
2019-03-23T14:02:56.187Z,65.78
2019-03-23T14:04:00.409Z,72.20
2019-03-23T14:05:12.176Z,62.67
2019-03-23T14:06:11.538Z,70.00
2019-03-23T14:07:15.719Z,71.80
2019-03-23T14:08:19.915Z,70.23
2019-03-23T14:09:24.122Z,70.67
2019-03-23T14:10:28.291Z,69.65
2019-03-23T14:11:32.471Z,64.65
2019-03-23T14:12:36.647Z,65.97
2019-03-23T14:13:40.859Z,69.65
2019-03-23T14:14:45.038Z,65.25
2019-03-23T14:15:49.221Z,74.00
2019-03-23T14:16:53.398Z,69.10
2019-03-23T14:17:57.586Z,69.20
2019-03-23T14:19:01.879Z,65.62
2019-03-23T14:20:06.526Z,68.70
2019-03-23T14:21:11.034Z,68.60
2019-03-23T14:22:15.215Z,61.90
2019-03-23T14:23:19.405Z,65.42